sensor_id;sensor_type;location;lat;lon;timestamp;P1;durP1;ratioP1;P2;durP2;ratioP2
3155;SDS011;1588;50.892;7.082;2023-08-31T00:04:04;8.63;;;4.90;;
3155;SDS011;1588;50.892;7.082;2023-08-31T00:09:08;8.03;;;4.37;;
3155;SDS011;1588;50.892;7.082;2023-08-31T00:14:11;9.37;;;4.30;;
3155;SDS011;1588;50.892;7.082;2023-08-31T00:19:15;15.93;;;4.00;;
3155;SDS011;1588;50.892;7.082;2023-08-31T00:24:32;10.63;;;4.20;;
3155;SDS011;1588;50.892;7.082;2023-08-31T00:29:37;10.10;;;4.57;;
3155;SDS011;1588;50.892;7.082;2023-08-31T00:34:41;19.47;;;4.20;;
3155;SDS011;1588;50.892;7.082;2023-08-31T00:39:43;4.70;;;4.17;;
3155;SDS011;1588;50.892;7.082;2023-08-31T00:44:46;10.03;;;5.07;;
3155;SDS011;1588;50.892;7.082;2023-08-31T00:49:50;17.80;;;5.13;;
3155;SDS011;1588;50.892;7.082;2023-08-31T00:54:53;10.27;;;5.03;;
3155;SDS011;1588;50.892;7.082;2023-08-31T00:59:58;10.93;;;4.90;;
3155;SDS011;1588;50.892;7.082;2023-08-31T01:05:03;9.50;;;4.40;;
3155;SDS011;1588;50.892;7.082;2023-08-31T01:10:11;14.03;;;4.53;;
3155;SDS011;1588;50.892;7.082;2023-08-31T01:15:19;15.77;;;5.13;;
3155;SDS011;1588;50.892;7.082;2023-08-31T01:20:26;6.83;;;4.20;;
3155;SDS011;1588;50.892;7.082;2023-08-31T01:25:34;6.37;;;4.47;;
3155;SDS011;1588;50.892;7.082;2023-08-31T01:30:37;10.10;;;4.10;;
3155;SDS011;1588;50.892;7.082;2023-08-31T01:35:42;9.23;;;4.03;;
3155;SDS011;1588;50.892;7.082;2023-08-31T01:40:49;8.93;;;3.60;;
3155;SDS011;1588;50.892;7.082;2023-08-31T01:45:56;14.27;;;4.40;;
3155;SDS011;1588;50.892;7.082;2023-08-31T01:50:59;13.20;;;4.40;;
3155;SDS011;1588;50.892;7.082;2023-08-31T01:56:03;4.13;;;3.33;;
3155;SDS011;1588;50.892;7.082;2023-08-31T02:01:06;6.77;;;3.90;;
3155;SDS011;1588;50.892;7.082;2023-08-31T02:06:09;6.10;;;3.80;;
3155;SDS011;1588;50.892;7.082;2023-08-31T02:11:22;10.53;;;3.90;;
3155;SDS011;1588;50.892;7.082;2023-08-31T02:16:25;10.87;;;4.40;;
3155;SDS011;1588;50.892;7.082;2023-08-31T02:21:27;20.67;;;3.77;;
3155;SDS011;1588;50.892;7.082;2023-08-31T02:26:31;8.60;;;3.57;;
3155;SDS011;1588;50.892;7.082;2023-08-31T02:31:33;6.73;;;4.17;;
3155;SDS011;1588;50.892;7.082;2023-08-31T02:36:35;11.90;;;4.30;;
3155;SDS011;1588;50.892;7.082;2023-08-31T02:41:39;4.37;;;3.37;;
3155;SDS011;1588;50.892;7.082;2023-08-31T02:46:41;10.17;;;4.20;;
3155;SDS011;1588;50.892;7.082;2023-08-31T02:51:43;14.87;;;4.27;;
3155;SDS011;1588;50.892;7.082;2023-08-31T02:56:47;8.80;;;3.60;;
3155;SDS011;1588;50.892;7.082;2023-08-31T03:01:50;4.63;;;3.57;;
3155;SDS011;1588;50.892;7.082;2023-08-31T03:06:53;7.13;;;3.63;;
3155;SDS011;1588;50.892;7.082;2023-08-31T03:11:56;7.40;;;3.90;;
3155;SDS011;1588;50.892;7.082;2023-08-31T03:16:58;8.70;;;4.60;;
3155;SDS011;1588;50.892;7.082;2023-08-31T03:22:01;9.03;;;3.67;;
3155;SDS011;1588;50.892;7.082;2023-08-31T03:27:05;9.00;;;4.27;;
3155;SDS011;1588;50.892;7.082;2023-08-31T03:32:07;9.07;;;3.97;;
3155;SDS011;1588;50.892;7.082;2023-08-31T03:37:10;4.50;;;3.33;;
3155;SDS011;1588;50.892;7.082;2023-08-31T03:42:14;19.53;;;4.10;;
3155;SDS011;1588;50.892;7.082;2023-08-31T03:47:16;6.60;;;3.60;;
3155;SDS011;1588;50.892;7.082;2023-08-31T03:52:18;20.10;;;3.83;;
3155;SDS011;1588;50.892;7.082;2023-08-31T03:57:22;7.40;;;3.80;;
3155;SDS011;1588;50.892;7.082;2023-08-31T04:02:24;7.33;;;4.00;;
3155;SDS011;1588;50.892;7.082;2023-08-31T04:07:27;8.13;;;3.93;;
3155;SDS011;1588;50.892;7.082;2023-08-31T04:12:31;9.60;;;4.80;;
3155;SDS011;1588;50.892;7.082;2023-08-31T04:17:33;7.83;;;3.97;;
3155;SDS011;1588;50.892;7.082;2023-08-31T04:22:35;11.00;;;4.80;;
3155;SDS011;1588;50.892;7.082;2023-08-31T04:27:39;8.20;;;4.40;;
3155;SDS011;1588;50.892;7.082;2023-08-31T04:32:42;8.60;;;5.07;;
3155;SDS011;1588;50.892;7.082;2023-08-31T04:37:45;7.53;;;5.13;;
3155;SDS011;1588;50.892;7.082;2023-08-31T04:42:49;10.00;;;5.63;;
3155;SDS011;1588;50.892;7.082;2023-08-31T04:47:51;10.37;;;5.03;;
3155;SDS011;1588;50.892;7.082;2023-08-31T04:52:54;11.87;;;5.63;;
3155;SDS011;1588;50.892;7.082;2023-08-31T04:57:57;10.13;;;5.27;;
3155;SDS011;1588;50.892;7.082;2023-08-31T05:03:00;10.23;;;5.50;;
3155;SDS011;1588;50.892;7.082;2023-08-31T05:08:07;10.83;;;5.43;;
3155;SDS011;1588;50.892;7.082;2023-08-31T05:13:11;12.30;;;6.17;;
3155;SDS011;1588;50.892;7.082;2023-08-31T05:18:13;10.40;;;5.73;;
3155;SDS011;1588;50.892;7.082;2023-08-31T05:23:16;8.20;;;5.10;;
3155;SDS011;1588;50.892;7.082;2023-08-31T05:28:19;11.63;;;5.97;;
3155;SDS011;1588;50.892;7.082;2023-08-31T05:33:22;9.50;;;5.40;;
3155;SDS011;1588;50.892;7.082;2023-08-31T05:38:26;7.27;;;5.33;;
3155;SDS011;1588;50.892;7.082;2023-08-31T05:43:29;12.70;;;6.20;;
3155;SDS011;1588;50.892;7.082;2023-08-31T05:48:32;9.10;;;5.67;;
3155;SDS011;1588;50.892;7.082;2023-08-31T05:53:34;11.23;;;5.60;;
3155;SDS011;1588;50.892;7.082;2023-08-31T05:58:39;8.47;;;4.97;;
3155;SDS011;1588;50.892;7.082;2023-08-31T06:03:41;8.93;;;5.70;;
3155;SDS011;1588;50.892;7.082;2023-08-31T06:08:44;7.43;;;5.27;;
3155;SDS011;1588;50.892;7.082;2023-08-31T06:13:50;8.87;;;5.27;;
3155;SDS011;1588;50.892;7.082;2023-08-31T06:18:53;16.63;;;4.30;;
3155;SDS011;1588;50.892;7.082;2023-08-31T06:23:55;10.67;;;3.87;;
3155;SDS011;1588;50.892;7.082;2023-08-31T06:28:59;4.30;;;3.13;;
3155;SDS011;1588;50.892;7.082;2023-08-31T06:34:01;4.70;;;3.27;;
3155;SDS011;1588;50.892;7.082;2023-08-31T06:39:05;7.33;;;2.90;;
3155;SDS011;1588;50.892;7.082;2023-08-31T06:44:09;6.70;;;2.97;;
3155;SDS011;1588;50.892;7.082;2023-08-31T06:49:12;4.73;;;2.77;;
3155;SDS011;1588;50.892;7.082;2023-08-31T06:54:15;5.50;;;2.73;;
3155;SDS011;1588;50.892;7.082;2023-08-31T06:59:18;4.80;;;3.17;;
3155;SDS011;1588;50.892;7.082;2023-08-31T07:04:21;4.50;;;2.83;;
3155;SDS011;1588;50.892;7.082;2023-08-31T07:09:23;3.20;;;2.10;;
3155;SDS011;1588;50.892;7.082;2023-08-31T07:14:29;4.90;;;2.97;;
3155;SDS011;1588;50.892;7.082;2023-08-31T07:19:31;9.63;;;2.47;;
3155;SDS011;1588;50.892;7.082;2023-08-31T07:24:36;6.50;;;2.30;;
3155;SDS011;1588;50.892;7.082;2023-08-31T07:29:40;4.10;;;2.10;;
3155;SDS011;1588;50.892;7.082;2023-08-31T07:34:42;4.50;;;2.03;;
3155;SDS011;1588;50.892;7.082;2023-08-31T07:39:45;4.23;;;2.20;;
3155;SDS011;1588;50.892;7.082;2023-08-31T07:44:49;4.97;;;2.10;;
3155;SDS011;1588;50.892;7.082;2023-08-31T07:49:51;3.80;;;1.97;;
3155;SDS011;1588;50.892;7.082;2023-08-31T07:54:53;4.70;;;2.07;;
3155;SDS011;1588;50.892;7.082;2023-08-31T07:59:57;5.90;;;2.00;;
3155;SDS011;1588;50.892;7.082;2023-08-31T08:04:59;3.43;;;1.50;;
3155;SDS011;1588;50.892;7.082;2023-08-31T08:10:02;6.67;;;2.23;;
3155;SDS011;1588;50.892;7.082;2023-08-31T08:15:06;2.10;;;1.57;;
3155;SDS011;1588;50.892;7.082;2023-08-31T08:20:10;4.10;;;1.97;;
3155;SDS011;1588;50.892;7.082;2023-08-31T08:25:12;5.80;;;2.10;;
3155;SDS011;1588;50.892;7.082;2023-08-31T08:30:16;2.60;;;1.70;;
3155;SDS011;1588;50.892;7.082;2023-08-31T08:35:19;2.57;;;1.67;;
3155;SDS011;1588;50.892;7.082;2023-08-31T08:40:21;5.43;;;1.80;;
3155;SDS011;1588;50.892;7.082;2023-08-31T08:45:26;4.33;;;1.93;;
3155;SDS011;1588;50.892;7.082;2023-08-31T08:50:34;2.63;;;1.43;;
3155;SDS011;1588;50.892;7.082;2023-08-31T08:55:37;7.00;;;1.90;;
3155;SDS011;1588;50.892;7.082;2023-08-31T09:00:41;2.40;;;1.80;;
3155;SDS011;1588;50.892;7.082;2023-08-31T09:05:44;2.70;;;2.33;;
3155;SDS011;1588;50.892;7.082;2023-08-31T09:10:47;2.33;;;1.40;;
3155;SDS011;1588;50.892;7.082;2023-08-31T09:15:51;3.33;;;1.30;;
3155;SDS011;1588;50.892;7.082;2023-08-31T09:20:53;4.83;;;1.40;;
3155;SDS011;1588;50.892;7.082;2023-08-31T09:25:57;4.50;;;1.63;;
3155;SDS011;1588;50.892;7.082;2023-08-31T09:31:06;1.97;;;1.37;;
3155;SDS011;1588;50.892;7.082;2023-08-31T09:36:09;1.70;;;1.33;;
3155;SDS011;1588;50.892;7.082;2023-08-31T09:41:12;2.60;;;1.60;;
3155;SDS011;1588;50.892;7.082;2023-08-31T09:46:17;4.80;;;1.50;;
3155;SDS011;1588;50.892;7.082;2023-08-31T09:51:20;1.90;;;1.27;;
3155;SDS011;1588;50.892;7.082;2023-08-31T09:56:24;6.47;;;1.70;;
3155;SDS011;1588;50.892;7.082;2023-08-31T10:01:34;2.10;;;1.23;;
3155;SDS011;1588;50.892;7.082;2023-08-31T10:06:37;11.00;;;1.77;;
3155;SDS011;1588;50.892;7.082;2023-08-31T10:11:41;4.10;;;1.77;;
3155;SDS011;1588;50.892;7.082;2023-08-31T10:16:45;2.10;;;1.50;;
3155;SDS011;1588;50.892;7.082;2023-08-31T10:21:48;2.77;;;1.60;;
3155;SDS011;1588;50.892;7.082;2023-08-31T10:26:51;2.60;;;2.07;;
3155;SDS011;1588;50.892;7.082;2023-08-31T10:31:54;3.60;;;1.77;;
3155;SDS011;1588;50.892;7.082;2023-08-31T10:37:02;7.07;;;1.70;;
3155;SDS011;1588;50.892;7.082;2023-08-31T10:42:20;2.77;;;1.60;;
3155;SDS011;1588;50.892;7.082;2023-08-31T10:47:37;3.40;;;1.83;;
3155;SDS011;1588;50.892;7.082;2023-08-31T10:52:42;4.77;;;1.70;;
3155;SDS011;1588;50.892;7.082;2023-08-31T10:57:46;2.13;;;1.40;;
3155;SDS011;1588;50.892;7.082;2023-08-31T11:02:50;2.30;;;1.70;;
3155;SDS011;1588;50.892;7.082;2023-08-31T11:07:52;3.73;;;2.00;;
3155;SDS011;1588;50.892;7.082;2023-08-31T11:12:55;6.03;;;1.93;;
3155;SDS011;1588;50.892;7.082;2023-08-31T11:17:59;2.60;;;1.93;;
3155;SDS011;1588;50.892;7.082;2023-08-31T11:23:04;8.17;;;1.90;;
3155;SDS011;1588;50.892;7.082;2023-08-31T11:28:06;3.33;;;1.60;;
3155;SDS011;1588;50.892;7.082;2023-08-31T11:33:10;6.43;;;2.57;;
3155;SDS011;1588;50.892;7.082;2023-08-31T11:38:15;5.43;;;1.93;;
3155;SDS011;1588;50.892;7.082;2023-08-31T11:43:18;3.80;;;2.07;;
3155;SDS011;1588;50.892;7.082;2023-08-31T11:48:23;3.57;;;2.37;;
3155;SDS011;1588;50.892;7.082;2023-08-31T11:53:26;4.70;;;2.00;;
3155;SDS011;1588;50.892;7.082;2023-08-31T11:58:32;5.60;;;2.10;;
3155;SDS011;1588;50.892;7.082;2023-08-31T12:03:44;5.93;;;2.20;;
3155;SDS011;1588;50.892;7.082;2023-08-31T12:08:47;3.03;;;2.20;;
3155;SDS011;1588;50.892;7.082;2023-08-31T12:13:59;4.03;;;2.70;;
3155;SDS011;1588;50.892;7.082;2023-08-31T12:19:03;4.07;;;2.30;;
3155;SDS011;1588;50.892;7.082;2023-08-31T12:24:06;2.80;;;2.60;;
3155;SDS011;1588;50.892;7.082;2023-08-31T12:29:17;4.47;;;2.00;;
3155;SDS011;1588;50.892;7.082;2023-08-31T12:34:24;6.10;;;2.73;;
3155;SDS011;1588;50.892;7.082;2023-08-31T12:39:27;6.73;;;2.40;;
3155;SDS011;1588;50.892;7.082;2023-08-31T12:44:30;3.10;;;2.27;;
3155;SDS011;1588;50.892;7.082;2023-08-31T12:49:41;3.13;;;2.00;;
3155;SDS011;1588;50.892;7.082;2023-08-31T12:54:44;4.00;;;2.40;;
3155;SDS011;1588;50.892;7.082;2023-08-31T12:59:47;3.57;;;2.73;;
3155;SDS011;1588;50.892;7.082;2023-08-31T13:04:56;11.60;;;2.67;;
3155;SDS011;1588;50.892;7.082;2023-08-31T13:10:02;6.90;;;2.63;;
3155;SDS011;1588;50.892;7.082;2023-08-31T13:15:05;4.20;;;2.23;;
3155;SDS011;1588;50.892;7.082;2023-08-31T13:20:11;5.87;;;2.20;;
3155;SDS011;1588;50.892;7.082;2023-08-31T13:25:13;4.70;;;2.13;;
3155;SDS011;1588;50.892;7.082;2023-08-31T13:30:19;3.83;;;1.97;;
3155;SDS011;1588;50.892;7.082;2023-08-31T13:35:24;2.20;;;2.00;;
3155;SDS011;1588;50.892;7.082;2023-08-31T13:40:28;4.30;;;2.33;;
3155;SDS011;1588;50.892;7.082;2023-08-31T13:45:31;4.40;;;1.90;;
3155;SDS011;1588;50.892;7.082;2023-08-31T13:50:36;5.60;;;2.00;;
3155;SDS011;1588;50.892;7.082;2023-08-31T13:55:39;4.40;;;2.23;;
3155;SDS011;1588;50.892;7.082;2023-08-31T14:00:41;8.87;;;2.20;;
3155;SDS011;1588;50.892;7.082;2023-08-31T14:05:48;6.77;;;2.47;;
3155;SDS011;1588;50.892;7.082;2023-08-31T14:10:55;2.50;;;2.17;;
3155;SDS011;1588;50.892;7.082;2023-08-31T14:15:58;5.67;;;2.57;;
3155;SDS011;1588;50.892;7.082;2023-08-31T14:21:03;7.23;;;2.67;;
3155;SDS011;1588;50.892;7.082;2023-08-31T14:26:05;3.60;;;2.77;;
3155;SDS011;1588;50.892;7.082;2023-08-31T14:31:10;26.23;;;3.63;;
3155;SDS011;1588;50.892;7.082;2023-08-31T14:36:14;7.00;;;2.50;;
3155;SDS011;1588;50.892;7.082;2023-08-31T14:41:18;4.73;;;2.10;;
3155;SDS011;1588;50.892;7.082;2023-08-31T14:46:20;3.20;;;2.20;;
3155;SDS011;1588;50.892;7.082;2023-08-31T14:51:26;8.83;;;1.90;;
3155;SDS011;1588;50.892;7.082;2023-08-31T14:56:28;6.03;;;2.00;;
3155;SDS011;1588;50.892;7.082;2023-08-31T15:01:31;3.23;;;1.90;;
3155;SDS011;1588;50.892;7.082;2023-08-31T15:06:35;4.93;;;2.30;;
3155;SDS011;1588;50.892;7.082;2023-08-31T15:11:37;7.80;;;2.20;;
3155;SDS011;1588;50.892;7.082;2023-08-31T15:16:40;2.23;;;1.70;;
3155;SDS011;1588;50.892;7.082;2023-08-31T15:21:44;2.83;;;2.30;;
3155;SDS011;1588;50.892;7.082;2023-08-31T15:26:47;4.53;;;1.87;;
3155;SDS011;1588;50.892;7.082;2023-08-31T15:31:49;4.50;;;1.50;;
3155;SDS011;1588;50.892;7.082;2023-08-31T15:36:53;6.23;;;2.03;;
3155;SDS011;1588;50.892;7.082;2023-08-31T15:41:55;8.37;;;2.10;;
3155;SDS011;1588;50.892;7.082;2023-08-31T15:46:58;2.13;;;1.50;;
3155;SDS011;1588;50.892;7.082;2023-08-31T15:52:02;3.90;;;2.10;;
3155;SDS011;1588;50.892;7.082;2023-08-31T15:57:06;4.80;;;1.90;;
3155;SDS011;1588;50.892;7.082;2023-08-31T16:02:09;4.87;;;2.60;;
3155;SDS011;1588;50.892;7.082;2023-08-31T16:07:17;6.47;;;2.63;;
3155;SDS011;1588;50.892;7.082;2023-08-31T16:12:20;5.10;;;2.17;;
3155;SDS011;1588;50.892;7.082;2023-08-31T16:17:22;3.27;;;2.10;;
3155;SDS011;1588;50.892;7.082;2023-08-31T16:22:26;2.93;;;2.07;;
3155;SDS011;1588;50.892;7.082;2023-08-31T16:27:29;3.23;;;2.17;;
3155;SDS011;1588;50.892;7.082;2023-08-31T16:32:31;8.20;;;2.23;;
3155;SDS011;1588;50.892;7.082;2023-08-31T16:37:35;3.40;;;2.10;;
3155;SDS011;1588;50.892;7.082;2023-08-31T16:42:38;3.73;;;2.10;;
3155;SDS011;1588;50.892;7.082;2023-08-31T16:47:41;6.53;;;2.13;;
3155;SDS011;1588;50.892;7.082;2023-08-31T16:52:45;2.90;;;1.83;;
3155;SDS011;1588;50.892;7.082;2023-08-31T16:57:47;4.57;;;1.90;;
3155;SDS011;1588;50.892;7.082;2023-08-31T17:02:50;6.60;;;2.03;;
3155;SDS011;1588;50.892;7.082;2023-08-31T17:07:54;5.00;;;2.37;;
3155;SDS011;1588;50.892;7.082;2023-08-31T17:12:57;4.27;;;2.30;;
3155;SDS011;1588;50.892;7.082;2023-08-31T17:18:05;7.47;;;2.70;;
3155;SDS011;1588;50.892;7.082;2023-08-31T17:23:09;4.53;;;2.63;;
3155;SDS011;1588;50.892;7.082;2023-08-31T17:28:12;17.40;;;2.83;;
3155;SDS011;1588;50.892;7.082;2023-08-31T17:33:16;7.33;;;2.47;;
3155;SDS011;1588;50.892;7.082;2023-08-31T17:38:20;6.20;;;2.87;;
3155;SDS011;1588;50.892;7.082;2023-08-31T17:43:23;5.93;;;2.90;;
3155;SDS011;1588;50.892;7.082;2023-08-31T17:48:26;5.43;;;2.60;;
3155;SDS011;1588;50.892;7.082;2023-08-31T17:53:30;5.13;;;2.93;;
3155;SDS011;1588;50.892;7.082;2023-08-31T17:58:32;5.53;;;2.90;;
3155;SDS011;1588;50.892;7.082;2023-08-31T18:03:35;3.60;;;2.20;;
3155;SDS011;1588;50.892;7.082;2023-08-31T18:08:39;5.90;;;2.67;;
3155;SDS011;1588;50.892;7.082;2023-08-31T18:13:43;7.17;;;3.10;;
3155;SDS011;1588;50.892;7.082;2023-08-31T18:24:22;9.30;;;2.80;;
3155;SDS011;1588;50.892;7.082;2023-08-31T18:29:25;11.63;;;2.97;;
3155;SDS011;1588;50.892;7.082;2023-08-31T18:34:31;11.53;;;3.03;;
3155;SDS011;1588;50.892;7.082;2023-08-31T18:39:37;7.87;;;2.70;;
3155;SDS011;1588;50.892;7.082;2023-08-31T18:44:39;8.50;;;2.90;;
3155;SDS011;1588;50.892;7.082;2023-08-31T18:49:42;4.00;;;2.33;;
3155;SDS011;1588;50.892;7.082;2023-08-31T18:54:46;8.27;;;3.50;;
3155;SDS011;1588;50.892;7.082;2023-08-31T18:59:49;3.83;;;2.83;;
3155;SDS011;1588;50.892;7.082;2023-08-31T19:04:57;5.40;;;2.40;;
3155;SDS011;1588;50.892;7.082;2023-08-31T19:10:06;3.83;;;2.20;;
3155;SDS011;1588;50.892;7.082;2023-08-31T19:15:19;7.00;;;2.90;;
3155;SDS011;1588;50.892;7.082;2023-08-31T19:20:28;4.73;;;2.63;;
3155;SDS011;1588;50.892;7.082;2023-08-31T19:25:32;10.80;;;3.40;;
3155;SDS011;1588;50.892;7.082;2023-08-31T19:30:46;7.00;;;2.80;;
3155;SDS011;1588;50.892;7.082;2023-08-31T19:36:01;7.10;;;3.00;;
3155;SDS011;1588;50.892;7.082;2023-08-31T19:41:09;4.77;;;2.97;;
3155;SDS011;1588;50.892;7.082;2023-08-31T19:46:20;8.30;;;3.10;;
3155;SDS011;1588;50.892;7.082;2023-08-31T19:51:33;4.50;;;3.00;;
3155;SDS011;1588;50.892;7.082;2023-08-31T19:56:40;5.63;;;2.77;;
3155;SDS011;1588;50.892;7.082;2023-08-31T20:01:47;7.87;;;3.23;;
3155;SDS011;1588;50.892;7.082;2023-08-31T20:06:59;9.03;;;3.23;;
3155;SDS011;1588;50.892;7.082;2023-08-31T20:12:09;4.73;;;2.60;;
3155;SDS011;1588;50.892;7.082;2023-08-31T20:17:12;4.03;;;3.03;;
3155;SDS011;1588;50.892;7.082;2023-08-31T20:22:14;6.57;;;2.90;;
3155;SDS011;1588;50.892;7.082;2023-08-31T20:27:18;8.33;;;3.00;;
3155;SDS011;1588;50.892;7.082;2023-08-31T20:32:20;7.90;;;3.23;;
3155;SDS011;1588;50.892;7.082;2023-08-31T20:37:23;10.27;;;3.10;;
3155;SDS011;1588;50.892;7.082;2023-08-31T20:42:27;8.07;;;3.30;;
3155;SDS011;1588;50.892;7.082;2023-08-31T20:47:29;9.40;;;3.60;;
3155;SDS011;1588;50.892;7.082;2023-08-31T20:52:32;6.40;;;3.43;;
3155;SDS011;1588;50.892;7.082;2023-08-31T20:57:36;5.63;;;3.30;;
3155;SDS011;1588;50.892;7.082;2023-08-31T21:02:39;14.43;;;3.83;;
3155;SDS011;1588;50.892;7.082;2023-08-31T21:07:41;10.53;;;4.50;;
3155;SDS011;1588;50.892;7.082;2023-08-31T21:12:45;9.40;;;3.87;;
3155;SDS011;1588;50.892;7.082;2023-08-31T21:17:50;11.97;;;4.00;;
3155;SDS011;1588;50.892;7.082;2023-08-31T21:22:53;6.80;;;3.33;;
3155;SDS011;1588;50.892;7.082;2023-08-31T21:27:57;7.03;;;3.43;;
3155;SDS011;1588;50.892;7.082;2023-08-31T21:32:59;5.80;;;3.00;;
3155;SDS011;1588;50.892;7.082;2023-08-31T21:38:05;11.23;;;3.33;;
3155;SDS011;1588;50.892;7.082;2023-08-31T21:43:09;7.70;;;3.20;;
3155;SDS011;1588;50.892;7.082;2023-08-31T21:48:12;6.33;;;3.47;;
3155;SDS011;1588;50.892;7.082;2023-08-31T21:53:17;12.40;;;3.93;;
3155;SDS011;1588;50.892;7.082;2023-08-31T21:58:21;18.30;;;3.97;;
3155;SDS011;1588;50.892;7.082;2023-08-31T22:03:24;11.50;;;4.63;;
3155;SDS011;1588;50.892;7.082;2023-08-31T22:08:26;9.10;;;3.53;;
3155;SDS011;1588;50.892;7.082;2023-08-31T22:13:30;5.93;;;3.27;;
3155;SDS011;1588;50.892;7.082;2023-08-31T22:18:34;6.80;;;4.20;;
3155;SDS011;1588;50.892;7.082;2023-08-31T22:23:37;6.60;;;3.63;;
3155;SDS011;1588;50.892;7.082;2023-08-31T22:28:41;7.90;;;3.60;;
3155;SDS011;1588;50.892;7.082;2023-08-31T22:33:44;13.50;;;3.60;;
3155;SDS011;1588;50.892;7.082;2023-08-31T22:38:46;23.77;;;4.13;;
3155;SDS011;1588;50.892;7.082;2023-08-31T22:43:50;14.83;;;4.20;;
3155;SDS011;1588;50.892;7.082;2023-08-31T22:48:52;5.10;;;3.40;;
3155;SDS011;1588;50.892;7.082;2023-08-31T22:53:55;10.37;;;3.93;;
3155;SDS011;1588;50.892;7.082;2023-08-31T22:58:58;6.20;;;3.53;;
3155;SDS011;1588;50.892;7.082;2023-08-31T23:04:01;16.20;;;4.00;;
3155;SDS011;1588;50.892;7.082;2023-08-31T23:09:03;13.63;;;3.97;;
3155;SDS011;1588;50.892;7.082;2023-08-31T23:14:08;5.10;;;3.30;;
3155;SDS011;1588;50.892;7.082;2023-08-31T23:19:10;12.20;;;4.03;;
3155;SDS011;1588;50.892;7.082;2023-08-31T23:24:12;7.47;;;4.00;;
3155;SDS011;1588;50.892;7.082;2023-08-31T23:29:16;8.10;;;3.60;;
3155;SDS011;1588;50.892;7.082;2023-08-31T23:34:19;7.77;;;3.80;;
3155;SDS011;1588;50.892;7.082;2023-08-31T23:39:21;9.00;;;3.87;;
3155;SDS011;1588;50.892;7.082;2023-08-31T23:44:25;8.33;;;4.10;;
3155;SDS011;1588;50.892;7.082;2023-08-31T23:49:28;18.83;;;3.70;;
3155;SDS011;1588;50.892;7.082;2023-08-31T23:54:30;8.83;;;3.50;;
3155;SDS011;1588;50.892;7.082;2023-08-31T23:59:34;27.57;;;5.13;;
